Terminal Aerodrome Forecast
Issued by NWS Greer, SC

Home | Current Version | Previous Version | Text Only | Print | Product List | Glossary On
Versions: 1 2 3 4 5 6 7 8 9 10 11 12 13 14 15 16 17 18 19 20 21
493
FTUS42 KGSP 280404 AAB
TAFGSP
TAF AMD
KGSP 280404Z 2804/2824 25006KT P6SM VCTS BKN050CB
     FM280800 25005KT P6SM VCSH SCT050 BKN200
     FM281500 23009G16KT P6SM SCT050 BKN150 PROB30 2817/2823 3SM
      TSRA OVC035CB=

USA.gov is the U.S. government's official web portal to all federal, state and local government web resources and services.